Time;durP1;ratioP1;P1;durP2;ratioP2;P2;SDS_P1;SDS_P2;PMS_P1;PMS_P2;Temp;Humidity;BMP_temperature;BMP_pressure;BME280_temperature;BME280_humidity;BME280_pressure;Samples;Min_cycle;Max_cycle;Signal;HPM_P1;HPM_P2
2023/01/19 00:01:29;;;;;;;11.95;6.50;;;9.30;99.90;;;;;;4962846;28;20490;-78
2023/01/19 00:03:57;;;;;;;14.68;7.72;;;9.30;1.00;;;;;;4962754;28;20038;-77
2023/01/19 00:06:24;;;;;;;19.95;10.75;;;9.20;1.00;;;;;;4962149;28;20035;-77
2023/01/19 00:08:51;;;;;;;15.68;8.70;;;9.10;99.90;;;;;;4961036;28;20044;-76
2023/01/19 00:11:20;;;;;;;15.98;9.20;;;9.10;99.90;;;;;;4962980;28;20046;-77
2023/01/19 00:13:49;;;;;;;22.63;12.35;;;9.00;99.90;;;;;;4963894;28;20039;-77
2023/01/19 00:16:21;;;;;;;18.98;10.40;;;9.00;99.90;;;;;;4973081;28;20051;-78
2023/01/19 00:18:50;;;;;;;19.08;10.27;;;9.00;99.90;;;;;;4962783;28;20043;-78
2023/01/19 00:21:18;;;;;;;15.30;8.88;;;9.10;99.90;;;;;;4961679;28;20679;-79
2023/01/19 00:23:47;;;;;;;19.60;10.45;;;9.00;99.90;;;;;;4960949;28;20044;-78
2023/01/19 00:26:16;;;;;;;26.40;14.50;;;9.10;99.90;;;;;;4964463;28;20047;-77
2023/01/19 00:28:44;;;;;;;23.30;13.90;;;9.00;99.90;;;;;;4971735;28;20051;-78
2023/01/19 00:31:12;;;;;;;27.50;15.25;;;9.00;99.90;;;;;;4969859;28;20046;-77
2023/01/19 00:33:41;;;;;;;27.98;15.55;;;9.00;99.90;;;;;;4963334;28;20043;-78
2023/01/19 00:36:09;;;;;;;23.73;12.88;;;9.00;99.90;;;;;;4960900;28;20053;-76
2023/01/19 00:38:37;;;;;;;22.65;12.60;;;9.00;99.90;;;;;;4961996;28;20110;-78
2023/01/19 00:41:05;;;;;;;22.83;13.90;;;8.90;99.90;;;;;;4960476;28;20531;-78
2023/01/19 00:43:32;;;;;;;21.10;11.95;;;8.80;99.90;;;;;;4960476;28;20047;-78
2023/01/19 00:45:59;;;;;;;20.10;11.40;;;8.80;99.90;;;;;;4960213;28;20412;-78
2023/01/19 00:48:27;;;;;;;23.50;14.20;;;8.80;99.90;;;;;;4964483;28;20506;-78
2023/01/19 00:50:56;;;;;;;20.80;12.43;;;8.70;99.90;;;;;;4958979;28;20047;-78
2023/01/19 00:53:24;;;;;;;24.33;13.98;;;8.70;99.90;;;;;;4961720;28;20411;-78
2023/01/19 00:55:52;;;;;;;25.63;13.23;;;8.70;99.90;;;;;;4961406;28;20039;-78
2023/01/19 00:58:21;;;;;;;18.88;10.90;;;8.70;99.90;;;;;;4960038;28;20053;-77
2023/01/19 01:00:48;;;;;;;18.95;11.50;;;8.70;99.90;;;;;;4960981;28;20098;-78
2023/01/19 01:03:16;;;;;;;18.65;11.07;;;8.70;99.90;;;;;;4963114;28;20043;-77
2023/01/19 01:05:43;;;;;;;21.75;13.38;;;8.80;99.90;;;;;;4966176;28;20035;-78
2023/01/19 01:08:12;;;;;;;23.88;13.40;;;8.80;99.90;;;;;;4963805;28;20050;-77
2023/01/19 01:10:40;;;;;;;24.00;15.30;;;8.80;99.90;;;;;;4969065;28;20044;-77
2023/01/19 01:13:07;;;;;;;25.73;16.13;;;8.80;99.90;;;;;;4971035;28;20046;-79
2023/01/19 01:15:35;;;;;;;24.25;15.85;;;8.70;99.90;;;;;;4981676;28;20062;-78
2023/01/19 01:18:02;;;;;;;23.77;15.30;;;8.70;99.90;;;;;;4986160;28;20047;-78
2023/01/19 01:20:35;;;;;;;21.98;14.73;;;8.70;99.90;;;;;;4972644;28;20042;-79
2023/01/19 01:23:03;;;;;;;27.30;16.90;;;8.80;99.90;;;;;;4967041;28;20047;-78
2023/01/19 01:25:42;;;;;;;28.48;17.70;;;8.80;99.90;;;;;;4965582;28;20142;-77
2023/01/19 01:28:12;;;;;;;34.28;21.20;;;8.80;99.90;;;;;;4968865;28;20404;-79
2023/01/19 01:30:42;;;;;;;31.35;20.08;;;8.70;99.90;;;;;;4967242;28;20073;-77
2023/01/19 01:33:10;;;;;;;30.73;19.55;;;8.70;99.90;;;;;;4965229;28;20066;-77
2023/01/19 01:35:38;;;;;;;31.42;20.02;;;8.60;99.90;;;;;;4964216;28;20051;-77
2023/01/19 01:38:06;;;;;;;27.10;15.85;;;8.60;99.90;;;;;;4965281;28;20081;-76
2023/01/19 01:40:35;;;;;;;22.73;14.82;;;8.50;99.90;;;;;;4966320;28;20050;-77
2023/01/19 01:43:02;;;;;;;19.77;11.20;;;8.40;99.90;;;;;;4964148;28;20051;-76
2023/01/19 01:45:33;;;;;;;24.02;14.90;;;8.50;99.90;;;;;;4965313;28;20512;-78
2023/01/19 01:48:06;;;;;;;24.67;15.38;;;8.40;99.90;;;;;;4966220;28;20047;-78
2023/01/19 01:50:37;;;;;;;21.45;13.60;;;8.40;99.90;;;;;;4967906;28;20447;-76
2023/01/19 01:53:08;;;;;;;18.40;11.23;;;8.40;99.90;;;;;;4965868;28;20038;-78
2023/01/19 01:55:42;;;;;;;19.80;12.43;;;8.30;99.90;;;;;;4963159;28;20094;-77
2023/01/19 01:58:12;;;;;;;20.27;11.43;;;8.40;99.90;;;;;;4983484;28;20029;-77
2023/01/19 02:03:27;;;;;;;16.45;9.02;;;8.30;99.90;;;;;;4982415;28;20074;-77
2023/01/19 02:05:58;;;;;;;16.65;10.10;;;8.30;99.90;;;;;;4979387;28;20019;-77
2023/01/19 02:14:04;;;;;;;25.15;14.73;;;8.20;99.90;;;;;;4995677;28;20525;-77
2023/01/19 02:16:33;;;;;;;25.58;16.17;;;8.30;99.90;;;;;;4963261;28;20049;-77
2023/01/19 02:19:02;;;;;;;34.85;22.40;;;8.30;99.90;;;;;;4964532;28;20035;-78
2023/01/19 02:21:36;;;;;;;22.38;13.48;;;8.40;99.90;;;;;;4962986;28;20490;-77
2023/01/19 02:24:07;;;;;;;23.27;15.00;;;8.40;99.90;;;;;;4965638;28;20515;-78
2023/01/19 02:26:38;;;;;;;28.65;16.50;;;8.40;99.90;;;;;;4976473;28;20095;-78
2023/01/19 02:29:08;;;;;;;28.88;18.98;;;8.50;99.90;;;;;;4984824;28;20051;-78
2023/01/19 02:31:38;;;;;;;20.30;13.38;;;8.50;99.90;;;;;;4968912;28;20039;-78
2023/01/19 02:34:07;;;;;;;40.17;25.60;;;8.50;99.90;;;;;;4969956;28;20090;-76
2023/01/19 02:36:38;;;;;;;48.45;28.85;;;8.50;99.90;;;;;;4961755;28;20039;-77
2023/01/19 02:39:09;;;;;;;50.28;31.13;;;8.50;99.90;;;;;;4962345;28;20491;-77
2023/01/19 02:41:41;;;;;;;52.38;32.17;;;8.50;99.90;;;;;;4965124;28;20662;-77
2023/01/19 02:44:10;;;;;;;48.45;28.42;;;8.50;99.90;;;;;;4963028;28;20057;-76
2023/01/19 02:46:38;;;;;;;45.20;27.88;;;8.50;99.90;;;;;;4964985;28;20039;-79
2023/01/19 02:49:05;;;;;;;54.95;30.60;;;8.50;99.90;;;;;;4963732;28;20050;-77
2023/01/19 02:51:34;;;;;;;55.15;31.58;;;8.60;99.90;;;;;;4962971;28;20039;-76
2023/01/19 02:54:13;;;;;;;51.47;32.90;;;8.60;99.90;;;;;;4964027;28;20073;-77
2023/01/19 02:56:55;;;;;;;49.50;31.52;;;8.60;99.90;;;;;;4966172;28;20039;-76
2023/01/19 02:59:36;;;;;;;38.90;26.55;;;8.60;99.90;;;;;;4962882;28;20042;-76
2023/01/19 03:02:17;;;;;;;32.22;21.40;;;8.60;99.90;;;;;;4963727;28;20049;-77
2023/01/19 03:04:59;;;;;;;36.63;21.48;;;8.60;99.90;;;;;;4977241;28;20110;-78
2023/01/19 03:07:37;;;;;;;30.42;18.92;;;8.70;99.90;;;;;;4987527;28;20039;-78
2023/01/19 03:10:13;;;;;;;29.80;18.50;;;8.70;99.90;;;;;;4964213;28;20101;-78
2023/01/19 03:12:45;;;;;;;30.33;19.48;;;8.60;99.90;;;;;;4964821;28;20042;-79
2023/01/19 03:15:19;;;;;;;31.27;19.42;;;8.60;99.90;;;;;;4962999;28;20157;-76
2023/01/19 03:17:49;;;;;;;28.90;17.50;;;8.70;99.90;;;;;;4963646;28;20122;-77
2023/01/19 03:20:22;;;;;;;27.02;16.88;;;8.70;99.90;;;;;;4965904;28;20039;-77
2023/01/19 03:22:54;;;;;;;26.23;16.60;;;8.70;99.90;;;;;;4973488;28;20430;-79
2023/01/19 03:25:26;;;;;;;23.67;15.20;;;8.80;99.90;;;;;;4962379;28;20122;-76
2023/01/19 03:27:56;;;;;;;26.17;15.63;;;8.80;99.90;;;;;;4961209;28;20055;-76
2023/01/19 03:30:27;;;;;;;25.73;15.60;;;8.80;99.90;;;;;;4962631;28;20054;-78
2023/01/19 03:32:59;;;;;;;22.88;14.98;;;8.80;99.90;;;;;;4968685;28;20047;-77
2023/01/19 03:35:30;;;;;;;33.47;18.85;;;8.80;99.90;;;;;;4980774;28;20043;-77
2023/01/19 03:38:00;;;;;;;24.23;16.40;;;8.80;99.90;;;;;;4964930;28;20046;-79
2023/01/19 03:40:32;;;;;;;30.05;19.23;;;8.70;99.90;;;;;;4964502;28;20035;-78
2023/01/19 03:43:02;;;;;;;34.60;20.13;;;8.70;99.90;;;;;;4969606;28;20047;-81
2023/01/19 03:45:32;;;;;;;26.35;16.98;;;8.70;99.90;;;;;;4981485;28;20035;-78
2023/01/19 03:48:00;;;;;;;24.60;15.27;;;8.60;99.90;;;;;;4972797;28;20051;-79
2023/01/19 03:50:30;;;;;;;31.25;18.33;;;8.60;99.90;;;;;;4976220;28;20037;-78
2023/01/19 03:53:02;;;;;;;27.27;18.08;;;8.60;99.90;;;;;;4991718;28;20050;-78
2023/01/19 03:55:31;;;;;;;32.55;19.80;;;8.60;99.90;;;;;;4964739;28;20487;-78
2023/01/19 03:57:59;;;;;;;33.50;21.05;;;8.60;99.90;;;;;;4962471;28;20047;-77
2023/01/19 04:00:27;;;;;;;33.17;19.38;;;8.60;99.90;;;;;;4962470;28;20071;-78
2023/01/19 04:02:55;;;;;;;30.10;18.63;;;8.50;99.90;;;;;;4963674;28;20487;-77
2023/01/19 04:05:22;;;;;;;30.33;20.23;;;8.50;99.90;;;;;;4963134;28;20125;-78
2023/01/19 04:07:50;;;;;;;29.55;19.83;;;8.50;99.90;;;;;;4961101;28;20039;-78
2023/01/19 04:10:18;;;;;;;31.38;21.50;;;8.60;99.90;;;;;;4965175;28;20044;-77
2023/01/19 04:12:48;;;;;;;29.48;19.85;;;8.60;99.90;;;;;;4960857;28;20043;-79
2023/01/19 04:15:17;;;;;;;36.92;23.10;;;8.60;99.90;;;;;;4965163;28;20073;-78
2023/01/19 04:17:45;;;;;;;38.78;23.60;;;8.70;99.90;;;;;;4962610;28;20051;-77
2023/01/19 04:20:13;;;;;;;29.70;19.75;;;8.60;99.90;;;;;;4959569;28;20046;-77
2023/01/19 04:22:42;;;;;;;31.20;22.15;;;8.50;99.90;;;;;;4961447;28;20039;-77
2023/01/19 04:25:10;;;;;;;27.83;20.35;;;8.40;99.90;;;;;;4960892;28;20035;-79
2023/01/19 04:27:38;;;;;;;32.53;22.98;;;8.30;99.90;;;;;;4973133;28;20051;-78
2023/01/19 04:30:08;;;;;;;37.85;27.25;;;8.30;99.90;;;;;;4977023;28;20094;-78
2023/01/19 04:32:36;;;;;;;79.88;40.88;;;8.30;99.90;;;;;;4965512;28;20139;-78
2023/01/19 04:35:04;;;;;;;100.63;50.42;;;8.30;99.90;;;;;;4965260;28;20041;-78
2023/01/19 04:37:32;;;;;;;82.13;42.55;;;8.30;99.90;;;;;;4988824;28;20102;-78
2023/01/19 04:40:00;;;;;;;91.38;51.67;;;8.30;99.90;;;;;;4967074;28;20034;-79
2023/01/19 04:42:28;;;;;;;84.00;44.80;;;8.30;99.90;;;;;;4966672;28;20047;-77
2023/01/19 04:44:55;;;;;;;80.38;46.72;;;8.40;99.90;;;;;;4965520;28;20126;-77
2023/01/19 04:47:24;;;;;;;79.47;47.67;;;8.40;99.90;;;;;;4962720;28;20039;-77
2023/01/19 04:49:51;;;;;;;70.35;44.58;;;8.50;99.90;;;;;;4963838;28;20046;-77
2023/01/19 04:52:19;;;;;;;66.88;39.97;;;8.50;99.90;;;;;;4965331;28;20039;-78
2023/01/19 04:54:47;;;;;;;62.40;41.97;;;8.40;99.90;;;;;;4965927;28;20039;-78
2023/01/19 04:57:14;;;;;;;68.82;42.63;;;8.40;99.90;;;;;;4967194;28;20043;-79
2023/01/19 04:59:42;;;;;;;69.40;45.80;;;8.30;99.90;;;;;;4965254;28;20051;-77
2023/01/19 05:02:10;;;;;;;63.17;44.13;;;8.30;99.90;;;;;;4966952;28;20549;-78
2023/01/19 05:04:39;;;;;;;57.65;37.30;;;8.20;99.90;;;;;;4968110;28;20065;-78
2023/01/19 05:07:06;;;;;;;66.57;43.30;;;8.20;99.90;;;;;;4966339;28;20050;-77
2023/01/19 05:09:34;;;;;;;63.17;41.90;;;8.20;99.90;;;;;;4967219;28;20039;-77
2023/01/19 05:12:02;;;;;;;100.55;57.47;;;8.20;99.90;;;;;;4968274;28;20057;-78
2023/01/19 05:14:30;;;;;;;126.28;64.97;;;8.20;99.90;;;;;;4969282;28;20047;-78
2023/01/19 05:16:58;;;;;;;175.68;92.28;;;8.20;99.90;;;;;;4973334;28;20106;-77
2023/01/19 05:19:25;;;;;;;155.35;77.07;;;8.20;99.90;;;;;;4983751;28;20043;-79
2023/01/19 05:21:54;;;;;;;241.40;101.60;;;8.10;99.90;;;;;;4982642;28;20061;-78
2023/01/19 05:24:24;;;;;;;235.02;104.30;;;8.10;99.90;;;;;;4992362;28;20039;-78
2023/01/19 05:26:52;;;;;;;208.57;97.72;;;8.10;99.90;;;;;;4980079;28;20103;-78
2023/01/19 05:29:20;;;;;;;151.27;72.13;;;8.10;99.90;;;;;;4977603;28;20058;-78
2023/01/19 05:31:47;;;;;;;169.68;82.18;;;8.10;99.90;;;;;;4973110;28;20053;-76
2023/01/19 05:34:15;;;;;;;133.02;70.25;;;8.00;99.90;;;;;;4968948;28;20533;-76
2023/01/19 05:36:43;;;;;;;127.82;66.15;;;8.00;99.90;;;;;;4965100;28;20066;-75
2023/01/19 05:39:11;;;;;;;111.55;60.10;;;7.90;99.90;;;;;;4978178;28;20055;-75
2023/01/19 05:41:40;;;;;;;115.30;60.83;;;7.90;99.90;;;;;;4964002;28;20071;-76
2023/01/19 05:44:09;;;;;;;99.70;53.85;;;7.80;99.90;;;;;;4962502;28;20522;-76
2023/01/19 05:46:36;;;;;;;115.85;63.78;;;7.80;99.90;;;;;;4963108;28;20502;-75
2023/01/19 05:49:06;;;;;;;103.63;55.03;;;7.80;99.90;;;;;;4962615;28;20117;-74
2023/01/19 05:51:36;;;;;;;112.32;61.50;;;7.80;99.90;;;;;;4965001;28;20126;-76
2023/01/19 05:54:05;;;;;;;91.75;48.22;;;7.80;99.90;;;;;;4963593;28;20042;-75
2023/01/19 05:56:34;;;;;;;93.28;52.15;;;7.70;99.90;;;;;;4964013;28;20042;-75
2023/01/19 05:59:02;;;;;;;91.20;49.20;;;7.70;99.90;;;;;;4965932;28;20063;-76
2023/01/19 06:01:29;;;;;;;82.72;46.17;;;7.80;99.90;;;;;;4972377;28;20063;-77
2023/01/19 06:03:57;;;;;;;90.80;49.13;;;7.70;99.90;;;;;;4978182;28;20051;-76
2023/01/19 06:06:26;;;;;;;80.55;42.97;;;7.70;99.90;;;;;;4979355;28;20062;-75
2023/01/19 06:08:54;;;;;;;84.63;43.47;;;7.80;99.90;;;;;;4961464;28;20047;-75
2023/01/19 06:11:21;;;;;;;89.22;47.80;;;7.70;99.90;;;;;;4963415;28;20047;-74
2023/01/19 06:13:51;;;;;;;91.03;47.17;;;7.70;99.90;;;;;;4962860;28;20047;-74
2023/01/19 06:16:19;;;;;;;97.38;51.47;;;7.70;99.90;;;;;;4972614;28;20042;-75
2023/01/19 06:18:46;;;;;;;90.78;48.28;;;7.50;99.90;;;;;;4966809;28;20043;-76
2023/01/19 06:21:13;;;;;;;90.15;48.50;;;7.50;99.90;;;;;;4977866;28;20134;-75
2023/01/19 06:23:41;;;;;;;87.45;46.33;;;7.60;99.90;;;;;;4973869;28;20043;-76
2023/01/19 06:26:08;;;;;;;103.00;52.75;;;7.50;99.90;;;;;;4982978;28;20090;-75
2023/01/19 06:28:36;;;;;;;106.63;52.45;;;7.40;99.90;;;;;;4967712;28;20081;-77
2023/01/19 06:31:05;;;;;;;112.32;59.75;;;7.40;99.90;;;;;;4969434;28;20035;-75
2023/01/19 06:33:33;;;;;;;106.60;56.20;;;7.50;99.90;;;;;;4966549;28;20047;-76
2023/01/19 06:36:00;;;;;;;101.35;51.05;;;7.50;99.90;;;;;;4966078;28;20204;-75
2023/01/19 06:38:28;;;;;;;94.70;49.92;;;7.60;99.90;;;;;;4963954;28;20103;-76
2023/01/19 06:40:58;;;;;;;91.93;50.10;;;7.60;99.90;;;;;;4962930;28;20098;-75
2023/01/19 06:43:26;;;;;;;96.55;53.33;;;7.60;99.90;;;;;;4965046;28;20078;-76
2023/01/19 06:45:54;;;;;;;107.13;55.70;;;7.70;99.90;;;;;;4964241;28;20043;-75
2023/01/19 06:48:24;;;;;;;108.68;58.58;;;7.70;99.90;;;;;;4968192;28;20082;-75
2023/01/19 06:50:52;;;;;;;113.88;61.53;;;7.70;99.90;;;;;;4975012;28;20042;-77
2023/01/19 06:53:21;;;;;;;110.80;58.53;;;7.80;99.90;;;;;;4971562;28;20133;-75
2023/01/19 06:55:48;;;;;;;96.60;51.53;;;7.90;99.90;;;;;;4979823;28;20046;-75
2023/01/19 06:58:16;;;;;;;85.75;47.40;;;8.00;99.90;;;;;;4977831;28;20072;-76
2023/01/19 07:00:43;;;;;;;96.15;56.58;;;8.10;99.90;;;;;;4980544;28;20031;-77
2023/01/19 07:03:19;;;;;;;104.65;58.10;;;8.20;99.90;;;;;;4980269;28;20082;-78
2023/01/19 07:05:52;;;;;;;110.63;62.13;;;8.40;99.90;;;;;;4977970;28;20049;-79
2023/01/19 07:08:19;;;;;;;95.53;53.75;;;8.60;99.90;;;;;;4981394;28;20047;-78
2023/01/19 07:10:46;;;;;;;103.63;57.97;;;8.80;99.90;;;;;;4978847;28;20039;-78
2023/01/19 07:13:14;;;;;;;98.65;56.13;;;8.90;99.90;;;;;;4980737;28;20042;-79
2023/01/19 07:15:41;;;;;;;102.50;59.15;;;9.00;99.90;;;;;;4982604;28;20023;-76
2023/01/19 07:18:09;;;;;;;96.32;54.97;;;9.00;99.90;;;;;;4983004;28;20067;-78
2023/01/19 07:20:37;;;;;;;100.53;58.15;;;9.00;99.90;;;;;;4971599;28;20048;-78
2023/01/19 07:23:06;;;;;;;97.00;52.33;;;9.00;99.90;;;;;;4972417;28;20070;-77
2023/01/19 07:25:33;;;;;;;93.85;53.78;;;8.90;99.90;;;;;;4972347;28;20062;-77
2023/01/19 07:28:01;;;;;;;99.97;54.83;;;8.90;99.90;;;;;;4973737;28;20053;-76
2023/01/19 07:30:29;;;;;;;108.13;57.40;;;8.80;99.90;;;;;;4969128;28;20043;-77
2023/01/19 07:32:57;;;;;;;103.50;54.35;;;8.80;99.90;;;;;;4965653;28;20039;-79
2023/01/19 07:35:25;;;;;;;88.32;48.85;;;8.80;99.90;;;;;;4967331;28;20042;-76
2023/01/19 07:37:52;;;;;;;80.25;44.90;;;8.80;99.90;;;;;;4968311;28;20103;-74
2023/01/19 07:40:21;;;;;;;77.78;44.63;;;8.80;99.90;;;;;;4969763;28;20507;-78
2023/01/19 07:42:50;;;;;;;92.35;53.13;;;8.80;99.90;;;;;;4972381;28;20051;-79
2023/01/19 07:45:19;;;;;;;89.90;51.75;;;8.90;99.90;;;;;;4967680;28;20040;-76
2023/01/19 07:47:48;;;;;;;92.25;52.63;;;9.10;99.90;;;;;;4964708;28;20039;-77
2023/01/19 07:50:20;;;;;;;99.50;57.42;;;9.30;99.90;;;;;;4961165;28;20043;-78
2023/01/19 07:52:49;;;;;;;102.78;57.78;;;9.40;99.90;;;;;;4963905;28;20129;-79
2023/01/19 07:55:17;;;;;;;93.32;54.70;;;9.40;99.90;;;;;;4963422;28;20491;-79
2023/01/19 07:57:49;;;;;;;94.20;56.10;;;9.40;99.90;;;;;;4988488;28;20126;-80
2023/01/19 08:00:20;;;;;;;88.57;48.17;;;9.40;99.90;;;;;;4961851;28;20035;-79
2023/01/19 08:02:50;;;;;;;97.68;57.53;;;9.30;99.90;;;;;;4965440;28;20138;-79
2023/01/19 08:05:19;;;;;;;99.05;57.78;;;9.20;99.90;;;;;;4965731;28;20550;-78
2023/01/19 08:07:47;;;;;;;110.97;66.10;;;9.20;99.90;;;;;;4965852;28;20051;-79
2023/01/19 08:10:17;;;;;;;123.05;72.60;;;9.20;99.90;;;;;;4970004;28;20050;-80
2023/01/19 08:12:46;;;;;;;136.80;82.15;;;9.20;99.90;;;;;;4974394;28;20153;-82
2023/01/19 08:15:14;;;;;;;129.60;79.95;;;9.20;99.90;;;;;;4966000;28;20150;-78
2023/01/19 08:17:42;;;;;;;139.15;80.78;;;9.10;99.90;;;;;;4968316;28;20047;-80
2023/01/19 08:20:12;;;;;;;116.78;69.78;;;9.00;99.90;;;;;;4975073;28;20043;-80
2023/01/19 08:22:39;;;;;;;88.20;53.92;;;8.90;99.90;;;;;;4976085;28;20066;-79
2023/01/19 08:25:08;;;;;;;83.00;52.13;;;8.90;99.90;;;;;;4968852;28;20407;-79
2023/01/19 08:27:45;;;;;;;68.18;42.20;;;8.90;99.90;;;;;;4976820;28;20110;-78
2023/01/19 08:30:16;;;;;;;61.50;38.55;;;8.80;99.90;;;;;;4952735;28;20055;-74
2023/01/19 08:32:43;;;;;;;62.20;39.72;;;8.70;99.90;;;;;;4958372;29;20073;-72
2023/01/19 08:35:10;;;;;;;62.22;39.97;;;8.60;99.90;;;;;;4955431;29;20164;-73
2023/01/19 08:37:38;;;;;;;70.70;44.05;;;8.60;99.90;;;;;;4955336;28;20039;-73
2023/01/19 08:40:06;;;;;;;81.28;45.33;;;8.40;99.90;;;;;;4954664;29;20051;-73
2023/01/19 08:42:35;;;;;;;95.47;53.10;;;8.30;99.90;;;;;;4953365;29;20447;-75
2023/01/19 08:45:03;;;;;;;101.50;59.25;;;8.20;99.90;;;;;;4953955;29;20051;-73
2023/01/19 08:47:32;;;;;;;101.28;61.75;;;8.30;99.90;;;;;;4968708;28;20051;-74
2023/01/19 08:50:00;;;;;;;109.70;64.78;;;8.40;99.90;;;;;;4954333;29;20046;-74
2023/01/19 08:52:28;;;;;;;116.03;64.47;;;8.50;99.90;;;;;;4954933;29;20046;-74
2023/01/19 08:54:55;;;;;;;89.03;52.28;;;8.80;99.90;;;;;;4954838;29;20610;-74
2023/01/19 08:57:23;;;;;;;83.63;51.15;;;8.90;99.90;;;;;;4953998;29;20067;-73
2023/01/19 08:59:50;;;;;;;74.40;46.17;;;9.00;99.90;;;;;;4969722;28;20098;-74
2023/01/19 09:02:19;;;;;;;71.47;44.28;;;8.90;99.90;;;;;;4955037;29;20051;-73
2023/01/19 09:04:48;;;;;;;85.43;49.45;;;8.90;99.90;;;;;;4955019;28;20058;-73
2023/01/19 09:07:16;;;;;;;77.57;47.47;;;9.00;99.90;;;;;;4954976;29;20078;-73
2023/01/19 09:09:43;;;;;;;78.15;48.90;;;9.10;99.90;;;;;;4955134;28;20122;-74
2023/01/19 09:12:11;;;;;;;66.13;41.45;;;9.40;99.90;;;;;;4953961;29;20162;-73
2023/01/19 09:14:39;;;;;;;63.58;39.90;;;9.80;99.90;;;;;;4954166;28;20050;-74
2023/01/19 09:17:06;;;;;;;65.88;40.80;;;10.20;99.90;;;;;;4953223;29;20078;-73
2023/01/19 09:19:33;;;;;;;74.35;44.50;;;10.40;99.90;;;;;;4953714;29;20399;-73
2023/01/19 09:22:02;;;;;;;63.28;38.35;;;10.60;99.90;;;;;;4953377;29;20066;-73
2023/01/19 09:24:30;;;;;;;61.10;35.88;;;10.60;99.90;;;;;;4954206;28;20431;-73
2023/01/19 09:26:57;;;;;;;61.22;36.28;;;10.70;99.90;;;;;;4953384;29;20408;-73
2023/01/19 09:29:24;;;;;;;66.28;38.85;;;10.60;99.90;;;;;;4953864;29;20518;-71
2023/01/19 09:31:52;;;;;;;85.70;50.08;;;10.60;99.90;;;;;;4953278;29;20484;-73
2023/01/19 09:34:19;;;;;;;97.93;49.60;;;10.50;99.90;;;;;;4953813;29;20047;-74
2023/01/19 09:36:47;;;;;;;115.82;64.45;;;10.50;99.90;;;;;;4953603;29;20039;-73
2023/01/19 09:39:16;;;;;;;115.20;60.10;;;10.30;99.90;;;;;;4953292;29;20058;-74
2023/01/19 09:41:49;;;;;;;118.57;60.20;;;10.30;99.90;;;;;;4952756;29;20043;-72
2023/01/19 09:44:20;;;;;;;126.35;61.22;;;10.20;99.90;;;;;;4954152;29;20111;-72
2023/01/19 09:46:47;;;;;;;109.32;58.70;;;10.00;99.90;;;;;;4952866;29;20041;-73
2023/01/19 09:49:16;;;;;;;111.18;60.38;;;10.00;99.90;;;;;;4953455;28;20043;-72
2023/01/19 09:51:47;;;;;;;91.65;50.95;;;9.80;99.90;;;;;;4950861;29;20047;-73
2023/01/19 09:54:18;;;;;;;45.30;27.30;;;9.70;99.90;;;;;;4952072;29;20046;-72
2023/01/19 09:56:47;;;;;;;32.33;18.08;;;9.30;99.90;;;;;;4968024;28;20355;-72
2023/01/19 09:59:23;;;;;;;31.67;17.60;;;9.00;99.90;;;;;;4953282;29;20051;-74
2023/01/19 10:02:07;;;;;;;19.13;11.90;;;8.90;99.90;;;;;;4952056;29;20122;-73
2023/01/19 10:04:40;;;;;;;15.18;9.00;;;8.80;99.90;;;;;;4941877;29;20562;-73
2023/01/19 10:07:13;;;;;;;15.45;9.55;;;8.70;99.90;;;;;;4954018;29;20039;-72
2023/01/19 10:09:56;;;;;;;17.65;9.50;;;8.50;99.90;;;;;;4953946;29;20123;-73
2023/01/19 10:12:35;;;;;;;18.88;9.75;;;8.40;99.90;;;;;;4952884;29;20054;-74
2023/01/19 10:15:13;;;;;;;20.55;12.68;;;8.30;99.90;;;;;;4953228;29;20091;-74
2023/01/19 10:17:51;;;;;;;15.88;9.85;;;8.30;99.90;;;;;;4952804;29;20537;-74
2023/01/19 10:20:24;;;;;;;13.02;9.18;;;8.20;99.90;;;;;;4952808;29;20039;-73
2023/01/19 10:22:52;;;;;;;21.33;12.57;;;8.20;99.90;;;;;;4952976;29;20075;-72
2023/01/19 10:25:23;;;;;;;17.83;11.73;;;8.10;99.90;;;;;;4961895;29;20043;-74
2023/01/19 10:27:51;;;;;;;23.50;15.00;;;8.10;99.90;;;;;;4954265;29;20051;-73
2023/01/19 10:30:22;;;;;;;22.10;12.30;;;8.10;99.90;;;;;;4958032;29;20039;-74
2023/01/19 10:32:51;;;;;;;20.08;11.82;;;8.10;99.90;;;;;;4959267;29;20035;-73
2023/01/19 10:35:23;;;;;;;22.00;13.00;;;8.10;99.90;;;;;;4973913;28;20044;-75
2023/01/19 10:37:51;;;;;;;27.77;17.30;;;8.00;99.90;;;;;;4958887;28;20046;-71
2023/01/19 10:40:27;;;;;;;21.13;12.00;;;8.00;99.90;;;;;;4959149;29;20058;-73
2023/01/19 10:42:57;;;;;;;17.88;10.75;;;8.00;99.90;;;;;;4961026;29;20050;-73
2023/01/19 10:45:28;;;;;;;17.60;11.60;;;7.90;99.90;;;;;;4962652;29;20051;-73
2023/01/19 10:47:57;;;;;;;33.10;20.45;;;7.90;99.90;;;;;;4961730;29;20035;-72
2023/01/19 10:50:27;;;;;;;20.77;12.68;;;7.90;99.90;;;;;;4955713;29;20476;-72
2023/01/19 10:52:57;;;;;;;19.80;11.48;;;8.10;99.90;;;;;;4952123;29;20047;-72
2023/01/19 10:55:28;;;;;;;19.65;12.85;;;8.30;99.90;;;;;;4952394;29;20054;-72
2023/01/19 10:57:57;;;;;;;22.30;13.55;;;8.50;99.90;;;;;;4952247;29;20062;-73
2023/01/19 11:00:36;;;;;;;26.65;15.85;;;8.70;99.90;;;;;;4952092;29;20086;-72
2023/01/19 11:03:04;;;;;;;22.95;15.73;;;8.90;1.00;;;;;;4951727;29;20063;-72
2023/01/19 11:05:33;;;;;;;25.98;15.70;;;9.00;99.90;;;;;;4952099;29;20047;-73
2023/01/19 11:08:01;;;;;;;17.10;10.38;;;9.10;1.00;;;;;;4966570;28;20051;-73
2023/01/19 11:10:30;;;;;;;15.05;8.07;;;9.20;99.90;;;;;;4951384;28;20039;-72
2023/01/19 11:13:01;;;;;;;14.07;8.10;;;9.30;99.90;;;;;;4951934;29;20527;-72
2023/01/19 11:15:33;;;;;;;13.07;8.35;;;9.40;1.00;;;;;;4951678;29;20078;-72
2023/01/19 11:18:02;;;;;;;15.43;10.30;;;9.50;99.90;;;;;;4952388;28;20094;-72
2023/01/19 11:20:39;;;;;;;20.13;12.57;;;9.50;99.90;;;;;;4951203;28;20043;-73
2023/01/19 11:23:18;;;;;;;18.10;11.23;;;9.50;1.00;;;;;;4951547;29;20077;-71
2023/01/19 11:25:49;;;;;;;16.13;10.48;;;9.50;1.00;;;;;;4952129;29;20173;-72
2023/01/19 11:28:20;;;;;;;13.45;9.35;;;9.60;1.00;;;;;;4951496;29;20142;-73
2023/01/19 11:31:17;;;;;;;13.57;9.80;;;9.70;1.00;;;;;;4950773;29;20047;-72
2023/01/19 11:33:50;;;;;;;17.27;11.30;;;9.70;48.40;;;;;;4950270;29;20051;-72
2023/01/19 11:36:19;;;;;;;25.00;15.90;;;9.90;1.00;;;;;;4952022;28;20047;-72
2023/01/19 11:38:49;;;;;;;22.45;14.43;;;10.00;1.00;;;;;;4951108;29;20055;-72
2023/01/19 11:41:21;;;;;;;16.48;11.57;;;9.80;1.00;;;;;;4950642;29;20511;-72
2023/01/19 11:43:51;;;;;;;10.80;6.95;;;9.60;99.90;;;;;;4951330;29;20039;-73
2023/01/19 11:46:19;;;;;;;9.80;6.57;;;9.70;99.90;;;;;;4950866;29;20395;-72
2023/01/19 11:48:55;;;;;;;15.73;8.75;;;9.60;1.00;;;;;;4950912;28;20039;-72
2023/01/19 11:51:25;;;;;;;10.63;5.85;;;9.80;99.90;;;;;;4951024;29;20047;-73
2023/01/19 11:53:53;;;;;;;13.75;6.97;;;9.80;99.90;;;;;;4951691;29;20050;-73
2023/01/19 11:56:27;;;;;;;10.57;6.70;;;9.60;99.90;;;;;;4951473;29;20492;-73
2023/01/19 11:58:54;;;;;;;9.02;5.90;;;9.50;99.90;;;;;;4952048;29;20050;-72
2023/01/19 12:01:24;;;;;;;11.02;6.90;;;9.50;99.90;;;;;;4951333;28;20589;-74
2023/01/19 12:03:56;;;;;;;13.27;8.77;;;9.30;99.90;;;;;;4960815;29;20153;-74
2023/01/19 12:06:29;;;;;;;17.85;11.32;;;9.40;1.00;;;;;;4954166;29;20043;-72
2023/01/19 12:09:00;;;;;;;15.13;10.27;;;9.50;1.00;;;;;;4950740;29;20039;-72
2023/01/19 12:11:32;;;;;;;13.45;8.82;;;9.70;99.90;;;;;;4951293;28;20514;-73
2023/01/19 12:14:00;;;;;;;11.25;7.07;;;9.70;99.90;;;;;;4951297;29;20051;-71
2023/01/19 12:16:30;;;;;;;11.82;7.25;;;9.80;99.90;;;;;;4950716;29;20102;-72
2023/01/19 12:19:00;;;;;;;9.57;6.05;;;9.80;1.00;;;;;;4951356;29;20051;-72
2023/01/19 12:21:28;;;;;;;12.43;7.45;;;9.90;1.00;;;;;;4951202;29;20031;-73
2023/01/19 12:24:04;;;;;;;11.82;8.15;;;10.00;1.00;;;;;;4951963;29;20058;-73
2023/01/19 12:26:37;;;;;;;11.65;7.95;;;9.80;1.00;;;;;;4950800;29;20043;-73
2023/01/19 12:29:11;;;;;;;18.60;9.68;;;9.70;1.00;;;;;;4951020;29;20059;-71
2023/01/19 12:31:41;;;;;;;13.70;8.77;;;9.50;99.90;;;;;;4948544;29;20054;-72
2023/01/19 12:34:40;;;;;;;11.02;8.00;;;9.40;99.90;;;;;;4950315;29;20055;-71
2023/01/19 12:37:38;;;;;;;10.65;7.20;;;9.20;99.90;;;;;;4908579;29;20082;-71
2023/01/19 12:40:23;;;;;;;14.15;10.35;;;9.10;99.90;;;;;;4950470;28;20062;-70
2023/01/19 12:42:59;;;;;;;13.20;8.35;;;9.10;99.90;;;;;;4950931;29;20054;-71
2023/01/19 12:45:31;;;;;;;11.45;7.10;;;9.20;99.90;;;;;;4952163;29;20043;-71
2023/01/19 12:47:58;;;;;;;12.75;8.30;;;9.20;1.00;;;;;;4950809;29;20039;-71
2023/01/19 12:50:28;;;;;;;11.70;7.68;;;9.20;1.00;;;;;;4950662;28;20051;-74
2023/01/19 12:52:58;;;;;;;9.85;5.43;;;9.20;1.00;;;;;;4950908;28;20130;-72
2023/01/19 12:55:29;;;;;;;8.18;5.38;;;9.20;1.00;;;;;;4950518;29;20051;-72
2023/01/19 12:58:05;;;;;;;10.52;6.10;;;9.30;1.00;;;;;;4950808;28;20467;-73
2023/01/19 13:00:38;;;;;;;6.85;4.60;;;9.20;1.00;;;;;;4951060;28;20050;-72